首页
METAR-TAF:

METAR-TAF

机场 :

孟买, 印度

纬度: 19-05-53N, 经度: 072-50-02E, 海拔: 4米

当前天气观测

该预报发布于20分钟前的12:30 UTC
风速5节,风向
温度 30°C
湿度 75%
气压 1004 hPa
能見度: 3000
散云层高于1800英尺
少量云层高于3000英尺, 积雨云.
多云层高于9000英尺
霾,

METAR: VAJJ 171230Z 19005KT 3000 HZ SCT018 FEW030CB BKN090 30/25 Q1004 NOSIG

时间: 18:20 (12:50 UTC)


TAF: 丢失

超过4000个机场的气象观测和天气预报(METAR&TAF报告)。

可查询的气象台以黄色和红色小点在地图上表示。

将鼠标移到小点上方,可查看气象台名称。

然后点击查看天气观测和预报。

如需切换地图:点击带黑十字的绿色按钮放大地图;点击带横线的绿色按钮缩小地图;或者点击绿色箭头查看邻近地区的地图。


METAR-TAF: